createdAt,value
2023-02-27T00:01:28.899Z,1.82
2023-02-27T00:03:57.870Z,1.87
2023-02-27T00:06:24.493Z,1.84
2023-02-27T00:08:53.387Z,1.86
2023-02-27T00:11:20.356Z,1.83
2023-02-27T00:13:51.215Z,1.83
2023-02-27T00:16:18.027Z,1.86
2023-02-27T00:18:44.695Z,1.87
2023-02-27T00:21:11.437Z,1.89
2023-02-27T00:23:38.357Z,1.93
2023-02-27T00:26:05.422Z,1.97
2023-02-27T00:28:35.170Z,1.93
2023-02-27T00:31:01.965Z,1.92
2023-02-27T00:33:30.457Z,1.97
2023-02-27T00:35:59.374Z,1.97
2023-02-27T00:38:26.465Z,2.00
2023-02-27T00:40:57.615Z,1.95
2023-02-27T00:43:24.480Z,1.88
2023-02-27T00:45:51.028Z,1.89
2023-02-27T00:48:20.817Z,1.93
2023-02-27T00:50:47.622Z,1.89
2023-02-27T00:53:14.273Z,1.87
2023-02-27T00:55:40.907Z,1.93
2023-02-27T00:58:07.633Z,2.02
2023-02-27T01:00:34.341Z,2.03
2023-02-27T01:03:03.954Z,2.01
2023-02-27T01:05:31.065Z,1.95
2023-02-27T01:08:00.042Z,1.96
2023-02-27T01:10:29.164Z,1.94
2023-02-27T01:12:55.819Z,1.99
2023-02-27T01:15:24.812Z,1.97
2023-02-27T01:17:51.596Z,1.95
2023-02-27T01:20:20.769Z,2.00
2023-02-27T01:22:47.461Z,1.99
2023-02-27T01:25:14.131Z,1.98
2023-02-27T01:27:41.302Z,1.96
2023-02-27T01:30:11.335Z,1.96
2023-02-27T01:32:38.348Z,1.96
2023-02-27T01:35:05.461Z,1.95
2023-02-27T01:37:34.523Z,1.90
2023-02-27T01:40:01.145Z,1.88
2023-02-27T01:42:33.780Z,1.91
2023-02-27T01:45:12.956Z,1.96
2023-02-27T01:47:48.003Z,1.97
2023-02-27T01:50:16.043Z,2.00
2023-02-27T01:52:49.373Z,2.00
2023-02-27T01:55:16.457Z,2.05
2023-02-27T01:57:46.470Z,2.05
2023-02-27T02:00:14.495Z,2.08
2023-02-27T02:02:56.580Z,2.04
2023-02-27T02:05:24.053Z,2.05
2023-02-27T02:07:54.302Z,2.06
2023-02-27T02:10:22.434Z,2.07
2023-02-27T02:12:49.970Z,2.03
2023-02-27T02:15:17.246Z,2.04
2023-02-27T02:17:53.333Z,2.06
2023-02-27T02:20:39.661Z,1.99
2023-02-27T02:23:31.819Z,1.96
2023-02-27T02:26:52.407Z,1.94
2023-02-27T02:29:59.743Z,1.96
2023-02-27T02:33:07.618Z,1.97
2023-02-27T02:36:01.266Z,1.95
2023-02-27T02:39:09.283Z,1.97
2023-02-27T02:41:58.940Z,1.93
2023-02-27T02:45:02.195Z,1.95
2023-02-27T02:47:47.545Z,1.96
2023-02-27T02:50:36.571Z,1.96
2023-02-27T02:53:58.324Z,1.98
2023-02-27T02:56:55.579Z,1.95
2023-02-27T02:59:33.712Z,1.94
2023-02-27T03:02:08.511Z,1.92
2023-02-27T03:04:44.178Z,1.90
2023-02-27T03:07:23.998Z,1.91
2023-02-27T03:10:00.110Z,1.90
2023-02-27T03:12:32.790Z,1.86
2023-02-27T03:15:20.133Z,1.85
2023-02-27T03:17:53.388Z,1.88
2023-02-27T03:20:33.638Z,1.89
2023-02-27T03:23:07.162Z,1.86
2023-02-27T03:25:41.509Z,1.89
2023-02-27T03:28:11.355Z,1.90
2023-02-27T03:30:50.590Z,1.86
2023-02-27T03:33:35.982Z,1.89
2023-02-27T03:36:14.954Z,1.87
2023-02-27T03:39:24.190Z,1.87
2023-02-27T03:42:16.707Z,1.85
2023-02-27T03:45:06.101Z,1.83
2023-02-27T03:47:36.058Z,1.82
2023-02-27T03:50:02.776Z,1.87
2023-02-27T03:52:30.214Z,1.84
2023-02-27T03:55:02.021Z,1.84
2023-02-27T03:57:29.311Z,1.83
2023-02-27T03:59:59.253Z,1.75
2023-02-27T04:02:28.046Z,1.75
2023-02-27T04:04:57.803Z,1.78
2023-02-27T04:07:41.899Z,1.72
2023-02-27T04:10:14.624Z,1.74
2023-02-27T04:12:57.929Z,1.73
2023-02-27T04:15:55.611Z,1.69
2023-02-27T04:18:36.374Z,1.62
2023-02-27T04:21:33.712Z,1.65
2023-02-27T04:24:17.682Z,1.70
2023-02-27T04:26:51.735Z,1.67
2023-02-27T04:29:27.990Z,1.68
2023-02-27T04:32:07.071Z,1.65
2023-02-27T04:34:44.030Z,1.68
2023-02-27T04:37:20.220Z,1.70
2023-02-27T04:39:57.952Z,1.70
2023-02-27T04:42:33.933Z,1.71
2023-02-27T04:45:04.833Z,1.69
2023-02-27T04:47:39.770Z,1.61
2023-02-27T04:50:17.163Z,1.60
2023-02-27T04:52:50.269Z,1.60
2023-02-27T04:55:39.129Z,1.59
2023-02-27T04:58:12.740Z,1.64
2023-02-27T05:00:52.473Z,1.60
2023-02-27T05:03:25.428Z,1.60
2023-02-27T05:05:56.964Z,1.62
2023-02-27T05:08:51.354Z,1.52
2023-02-27T05:11:37.170Z,1.56
2023-02-27T05:14:31.012Z,1.56
2023-02-27T05:17:14.901Z,1.55
2023-02-27T05:19:57.585Z,1.55
2023-02-27T05:22:43.171Z,1.57
2023-02-27T05:25:26.646Z,1.61
2023-02-27T05:28:06.479Z,1.62
2023-02-27T05:31:19.090Z,1.58
2023-02-27T05:33:55.722Z,1.59
2023-02-27T05:36:28.744Z,1.57
2023-02-27T05:39:09.025Z,1.62
2023-02-27T05:41:47.949Z,1.59
2023-02-27T05:44:21.899Z,1.60
2023-02-27T05:46:59.730Z,1.60
2023-02-27T05:49:43.719Z,1.59
2023-02-27T05:52:15.240Z,1.58
2023-02-27T05:54:51.838Z,1.52
2023-02-27T05:57:27.183Z,1.45
2023-02-27T06:00:13.854Z,1.45
2023-02-27T06:02:42.494Z,1.51
2023-02-27T06:05:09.520Z,1.59
2023-02-27T06:07:36.876Z,1.63
2023-02-27T06:10:06.415Z,1.63
2023-02-27T06:12:34.911Z,1.64
2023-02-27T06:15:04.156Z,1.68
2023-02-27T06:17:36.207Z,1.70
2023-02-27T06:20:03.452Z,1.74
2023-02-27T06:22:56.347Z,1.70
2023-02-27T06:25:37.479Z,1.82
2023-02-27T06:28:14.774Z,1.77
2023-02-27T06:30:46.587Z,1.75
2023-02-27T06:33:13.614Z,1.77
2023-02-27T06:35:40.262Z,1.77
2023-02-27T06:38:07.148Z,1.69
2023-02-27T06:40:39.346Z,1.71
2023-02-27T06:43:09.400Z,1.79
2023-02-27T06:45:38.306Z,1.78
2023-02-27T06:48:08.132Z,1.77
2023-02-27T06:50:34.901Z,1.75
2023-02-27T06:53:01.490Z,1.76
2023-02-27T06:55:30.057Z,1.75
2023-02-27T06:57:56.817Z,1.77
2023-02-27T07:00:32.243Z,1.75
2023-02-27T07:02:59.017Z,1.77
2023-02-27T07:05:28.645Z,1.67
2023-02-27T07:07:58.722Z,1.63
2023-02-27T07:10:28.407Z,1.66
2023-02-27T07:13:00.797Z,1.66
2023-02-27T07:15:32.370Z,1.73
2023-02-27T07:18:01.651Z,1.69
2023-02-27T07:20:31.447Z,1.69
2023-02-27T07:22:58.541Z,1.61
2023-02-27T07:25:25.372Z,1.60
2023-02-27T07:28:01.948Z,1.61
2023-02-27T07:30:41.785Z,1.58
2023-02-27T07:33:14.731Z,1.52
2023-02-27T07:35:41.560Z,1.45
2023-02-27T07:38:13.924Z,1.37
2023-02-27T07:40:42.714Z,1.33
2023-02-27T07:43:12.680Z,1.35
2023-02-27T07:45:41.202Z,1.37
2023-02-27T07:48:07.929Z,1.40
2023-02-27T07:50:40.660Z,1.46
2023-02-27T07:53:08.075Z,1.47
2023-02-27T07:55:35.862Z,1.51
2023-02-27T07:58:05.328Z,1.49
2023-02-27T08:00:32.561Z,1.50
2023-02-27T08:03:00.769Z,1.60
2023-02-27T08:05:30.660Z,1.60
2023-02-27T08:08:04.178Z,1.63
2023-02-27T08:10:31.369Z,1.65
2023-02-27T08:13:07.395Z,1.70
2023-02-27T08:15:34.179Z,1.71
2023-02-27T08:18:03.916Z,1.75
2023-02-27T08:20:31.801Z,1.82
2023-02-27T08:22:58.751Z,1.80
2023-02-27T08:25:25.453Z,1.83
2023-02-27T08:27:52.454Z,1.82
2023-02-27T08:30:19.303Z,1.84
2023-02-27T08:32:46.762Z,1.86
2023-02-27T08:35:13.830Z,1.86
2023-02-27T08:37:40.719Z,1.82
2023-02-27T08:40:09.329Z,1.91
2023-02-27T08:42:38.600Z,1.97
2023-02-27T08:45:05.629Z,1.97
2023-02-27T08:47:37.230Z,1.92
2023-02-27T08:50:07.657Z,2.02
2023-02-27T08:52:37.040Z,2.08
2023-02-27T08:58:13.040Z,2.21
2023-02-27T09:00:44.812Z,2.26
2023-02-27T09:03:13.979Z,2.29
2023-02-27T09:05:43.100Z,2.27
2023-02-27T09:08:10.344Z,2.26
2023-02-27T09:10:37.297Z,2.27
2023-02-27T09:13:10.383Z,2.29
2023-02-27T09:15:42.968Z,2.32
2023-02-27T09:18:12.967Z,2.27
2023-02-27T09:20:42.116Z,2.22
2023-02-27T09:23:09.279Z,2.20
2023-02-27T09:25:36.167Z,2.27
2023-02-27T09:28:03.368Z,2.24
2023-02-27T09:30:31.946Z,2.23
2023-02-27T09:33:00.674Z,2.13
2023-02-27T09:35:27.515Z,2.17
2023-02-27T09:37:56.678Z,2.18
2023-02-27T09:40:32.737Z,2.19
2023-02-27T09:43:11.772Z,2.22
2023-02-27T09:45:42.553Z,2.25
2023-02-27T09:48:42.998Z,2.37
2023-02-27T09:51:10.441Z,2.35
2023-02-27T09:53:43.092Z,2.37
2023-02-27T09:56:51.338Z,2.43
2023-02-27T09:59:46.748Z,2.43
2023-02-27T10:06:18.788Z,2.48
2023-02-27T10:09:06.936Z,2.53
2023-02-27T10:11:43.053Z,2.53
2023-02-27T10:15:18.447Z,2.54
2023-02-27T10:17:51.283Z,2.67
2023-02-27T10:20:26.444Z,2.75
2023-02-27T10:22:56.786Z,2.76
2023-02-27T10:25:31.781Z,2.77
2023-02-27T10:28:11.143Z,2.90
2023-02-27T10:30:38.062Z,2.93
2023-02-27T10:33:16.515Z,2.77
2023-02-27T10:35:46.929Z,2.76
2023-02-27T10:38:27.119Z,2.80
2023-02-27T10:40:56.903Z,2.75
2023-02-27T10:43:23.851Z,2.84
2023-02-27T10:45:52.724Z,2.91
2023-02-27T10:48:20.470Z,3.00
2023-02-27T10:50:52.344Z,3.03
2023-02-27T10:53:26.573Z,3.07
2023-02-27T10:56:05.529Z,3.00
2023-02-27T10:58:38.353Z,2.96
2023-02-27T11:01:13.190Z,2.88
2023-02-27T11:03:46.525Z,2.81
2023-02-27T11:06:26.651Z,2.77
2023-02-27T11:09:22.393Z,2.76
2023-02-27T11:11:50.794Z,2.81
2023-02-27T11:14:34.657Z,2.95
2023-02-27T11:17:22.649Z,3.02
2023-02-27T11:19:51.863Z,3.01
2023-02-27T11:22:25.103Z,3.11
2023-02-27T11:24:55.870Z,3.13
2023-02-27T11:27:29.466Z,3.12
2023-02-27T11:30:00.637Z,3.26
2023-02-27T11:32:51.457Z,3.39
2023-02-27T11:35:21.529Z,3.38
2023-02-27T11:37:52.978Z,3.47
2023-02-27T11:40:53.974Z,3.67
2023-02-27T11:43:34.403Z,3.89
2023-02-27T11:46:44.839Z,3.85
2023-02-27T11:49:40.086Z,3.93
2023-02-27T11:52:18.661Z,3.89
2023-02-27T11:54:59.994Z,3.96
2023-02-27T11:57:42.514Z,3.97
2023-02-27T12:01:00.404Z,3.84
2023-02-27T12:04:12.506Z,3.87
2023-02-27T12:06:51.974Z,3.90
2023-02-27T12:09:34.474Z,3.84
2023-02-27T12:12:06.313Z,3.90
2023-02-27T12:15:14.170Z,3.83
2023-02-27T12:17:46.733Z,3.90
2023-02-27T12:21:06.790Z,3.84
2023-02-27T12:24:26.704Z,3.80
2023-02-27T12:27:06.547Z,3.85
2023-02-27T12:29:41.991Z,3.84
2023-02-27T12:32:18.743Z,3.95
2023-02-27T12:34:59.740Z,4.01
2023-02-27T12:37:33.679Z,3.93
2023-02-27T12:40:20.038Z,3.86
2023-02-27T12:43:04.311Z,3.78
2023-02-27T12:45:42.922Z,3.89
2023-02-27T12:48:23.395Z,3.75
2023-02-27T12:51:12.628Z,3.79
2023-02-27T13:00:20.631Z,4.04
2023-02-27T13:03:13.006Z,4.41
2023-02-27T13:05:54.634Z,4.50
2023-02-27T13:08:57.969Z,4.63
2023-02-27T13:12:04.114Z,4.61
2023-02-27T13:14:46.732Z,4.46
2023-02-27T13:17:27.081Z,4.42
2023-02-27T13:20:33.263Z,4.37
2023-02-27T13:23:23.880Z,4.30
2023-02-27T13:25:55.561Z,4.31
2023-02-27T13:28:28.166Z,4.35
2023-02-27T13:31:27.421Z,4.26
2023-02-27T13:34:10.922Z,4.31
2023-02-27T13:36:45.225Z,4.45
2023-02-27T13:39:49.314Z,4.42
2023-02-27T13:42:28.239Z,4.44
2023-02-27T13:44:57.006Z,4.48
2023-02-27T13:47:29.729Z,4.44
2023-02-27T13:50:01.970Z,4.42
2023-02-27T13:52:40.734Z,4.36
2023-02-27T13:55:36.973Z,4.34
2023-02-27T13:58:07.831Z,4.31
2023-02-27T14:00:38.522Z,4.30
2023-02-27T14:03:25.963Z,4.28
2023-02-27T14:05:56.219Z,4.30
2023-02-27T14:08:28.060Z,4.13
2023-02-27T14:11:30.441Z,4.19
2023-02-27T14:14:01.845Z,4.16
2023-02-27T14:16:37.799Z,4.09
2023-02-27T14:19:17.260Z,3.96
2023-02-27T14:21:52.588Z,3.92
2023-02-27T14:24:22.998Z,3.92
2023-02-27T14:26:58.705Z,3.88
2023-02-27T14:29:31.521Z,3.78
2023-02-27T14:32:17.332Z,3.80
2023-02-27T14:34:44.141Z,3.83
2023-02-27T14:37:19.854Z,3.84
2023-02-27T14:39:51.840Z,3.94
2023-02-27T14:42:37.843Z,3.79
2023-02-27T14:45:12.446Z,3.84
2023-02-27T14:47:40.798Z,3.76
2023-02-27T14:50:31.291Z,3.78
2023-02-27T14:53:04.350Z,3.73
2023-02-27T14:55:36.066Z,3.74
2023-02-27T14:58:24.058Z,3.73
2023-02-27T15:01:05.285Z,3.73
2023-02-27T15:03:46.340Z,3.66
2023-02-27T15:06:20.990Z,3.66
2023-02-27T15:08:54.009Z,3.64
2023-02-27T15:11:25.009Z,3.61
2023-02-27T15:13:58.563Z,3.59
2023-02-27T15:16:25.245Z,3.59
2023-02-27T15:19:03.203Z,3.53
2023-02-27T15:21:37.045Z,3.53
2023-02-27T15:24:09.167Z,3.51
2023-02-27T15:26:39.596Z,3.46
2023-02-27T15:29:08.581Z,3.39
2023-02-27T15:31:39.089Z,3.30
2023-02-27T15:34:13.298Z,3.33
2023-02-27T15:36:46.879Z,3.41
2023-02-27T15:39:25.482Z,3.34
2023-02-27T15:41:59.357Z,3.32
2023-02-27T15:44:58.870Z,3.30
2023-02-27T15:47:33.290Z,3.26
2023-02-27T15:50:08.971Z,3.29
2023-02-27T15:53:04.271Z,3.26
2023-02-27T15:55:34.370Z,3.27
2023-02-27T15:58:19.356Z,3.24
2023-02-27T16:00:51.920Z,3.28
2023-02-27T16:03:22.980Z,3.29
2023-02-27T16:05:53.239Z,3.25
2023-02-27T16:08:21.285Z,3.24
2023-02-27T16:10:48.495Z,3.14
2023-02-27T16:13:27.748Z,3.19
2023-02-27T16:16:50.649Z,3.20
2023-02-27T16:19:30.707Z,3.18
2023-02-27T16:22:15.551Z,3.18
2023-02-27T16:24:49.822Z,3.15
2023-02-27T16:27:37.737Z,3.09
2023-02-27T16:30:11.117Z,3.18
2023-02-27T16:32:44.189Z,3.15
2023-02-27T16:35:24.606Z,3.16
2023-02-27T16:37:52.979Z,3.11
2023-02-27T16:40:25.201Z,3.16
2023-02-27T16:42:56.047Z,3.09
2023-02-27T16:45:25.429Z,3.14
2023-02-27T16:47:55.177Z,3.16
2023-02-27T16:50:35.057Z,3.15
2023-02-27T16:53:01.694Z,3.13
2023-02-27T16:55:28.405Z,3.12
2023-02-27T16:57:55.076Z,3.11
2023-02-27T17:00:22.819Z,3.13
2023-02-27T17:02:49.806Z,3.14
2023-02-27T17:05:19.633Z,3.15
2023-02-27T17:07:53.885Z,3.18
2023-02-27T17:10:25.595Z,3.08
2023-02-27T17:12:52.985Z,3.07
2023-02-27T17:15:21.416Z,3.07
2023-02-27T17:17:54.220Z,3.11
2023-02-27T17:20:43.752Z,3.16
2023-02-27T17:23:14.534Z,3.19
2023-02-27T17:25:56.336Z,3.21
2023-02-27T17:28:24.148Z,3.13
2023-02-27T17:30:51.028Z,3.19
2023-02-27T17:33:19.395Z,3.23
2023-02-27T17:35:46.168Z,3.20
2023-02-27T17:38:14.910Z,3.20
2023-02-27T17:40:43.559Z,3.19
2023-02-27T17:43:10.833Z,3.16
2023-02-27T17:45:38.574Z,3.14
2023-02-27T17:48:06.523Z,3.14
2023-02-27T17:50:35.884Z,3.18
2023-02-27T17:53:02.710Z,3.13
2023-02-27T17:55:47.611Z,3.14
2023-02-27T17:58:31.069Z,3.14
2023-02-27T18:01:21.794Z,3.13
2023-02-27T18:03:51.025Z,3.14
2023-02-27T18:06:23.478Z,3.09
2023-02-27T18:08:51.523Z,3.07
2023-02-27T18:11:20.343Z,3.11
2023-02-27T18:13:47.988Z,3.08
2023-02-27T18:16:16.297Z,3.08
2023-02-27T18:18:43.606Z,2.99
2023-02-27T18:21:22.899Z,2.96
2023-02-27T18:23:51.687Z,2.98
2023-02-27T18:26:30.580Z,2.97
2023-02-27T18:29:04.016Z,2.96
2023-02-27T18:31:38.311Z,2.95
2023-02-27T18:34:05.958Z,2.90
2023-02-27T18:36:37.043Z,2.90
2023-02-27T18:39:05.122Z,2.93
2023-02-27T18:41:37.994Z,2.92
2023-02-27T18:44:23.650Z,2.78
2023-02-27T18:46:53.420Z,2.80
2023-02-27T18:49:20.134Z,2.78
2023-02-27T18:51:49.910Z,2.79
2023-02-27T18:54:23.957Z,2.85
2023-02-27T18:57:13.022Z,2.75
2023-02-27T18:59:48.501Z,2.78
2023-02-27T19:05:02.830Z,2.71
2023-02-27T19:07:32.701Z,2.73
2023-02-27T19:10:01.935Z,2.73
2023-02-27T19:12:31.008Z,2.64
2023-02-27T19:15:00.580Z,2.68
2023-02-27T19:17:37.325Z,2.74
2023-02-27T19:20:08.735Z,2.73
2023-02-27T19:22:38.485Z,2.71
2023-02-27T19:25:05.599Z,2.57
2023-02-27T19:27:33.009Z,2.57
2023-02-27T19:30:12.593Z,2.59
2023-02-27T19:32:44.422Z,2.66
2023-02-27T19:35:17.528Z,2.81
2023-02-27T19:37:59.466Z,2.72
2023-02-27T19:40:32.108Z,2.72
2023-02-27T19:43:06.640Z,2.74
2023-02-27T19:45:43.547Z,2.61
2023-02-27T19:48:24.481Z,2.57
2023-02-27T19:50:52.330Z,2.60
2023-02-27T19:53:19.464Z,2.62
2023-02-27T19:55:55.989Z,2.57
2023-02-27T19:58:40.155Z,2.54
2023-02-27T20:01:13.764Z,2.52
2023-02-27T20:03:43.490Z,2.52
2023-02-27T20:06:23.864Z,2.54
2023-02-27T20:08:55.678Z,2.51
2023-02-27T20:11:22.384Z,2.50
2023-02-27T20:13:54.069Z,2.43
2023-02-27T20:16:31.098Z,2.33
2023-02-27T20:19:01.186Z,2.36
2023-02-27T20:21:30.846Z,2.37
2023-02-27T20:23:58.362Z,2.48
2023-02-27T20:26:32.290Z,2.42
2023-02-27T20:29:05.702Z,2.40
2023-02-27T20:31:36.104Z,2.42
2023-02-27T20:34:08.631Z,2.41
2023-02-27T20:36:39.481Z,2.42
2023-02-27T20:39:12.078Z,2.33
2023-02-27T20:41:42.818Z,2.31
2023-02-27T20:44:10.989Z,2.40
2023-02-27T20:46:48.908Z,2.37
2023-02-27T20:49:19.108Z,2.40
2023-02-27T20:51:46.051Z,2.32
2023-02-27T20:54:23.011Z,2.24
2023-02-27T20:56:54.476Z,2.27
2023-02-27T20:59:27.573Z,2.27
2023-02-27T21:01:57.412Z,2.33
2023-02-27T21:04:42.614Z,2.24
2023-02-27T21:07:15.358Z,2.24
2023-02-27T21:09:42.948Z,2.24
2023-02-27T21:12:10.047Z,2.20
2023-02-27T21:14:49.918Z,2.16
2023-02-27T21:17:16.586Z,2.14
2023-02-27T21:19:46.197Z,2.30
2023-02-27T21:22:17.322Z,2.32
2023-02-27T21:24:43.995Z,2.22
2023-02-27T21:27:13.524Z,2.19
2023-02-27T21:29:40.256Z,2.15
2023-02-27T21:32:09.239Z,2.13
2023-02-27T21:35:38.214Z,2.17
2023-02-27T21:38:05.450Z,2.21
2023-02-27T21:40:33.673Z,2.23
2023-02-27T21:43:01.432Z,2.25
2023-02-27T21:45:28.173Z,2.26
2023-02-27T21:48:03.569Z,2.31
2023-02-27T21:50:39.399Z,2.29
2023-02-27T21:53:10.492Z,2.31
2023-02-27T21:55:39.408Z,2.25
2023-02-27T21:58:10.298Z,2.25
2023-02-27T22:00:39.962Z,2.28
2023-02-27T22:03:09.126Z,2.31
2023-02-27T22:05:43.218Z,2.28
2023-02-27T22:08:10.437Z,2.23
2023-02-27T22:10:50.150Z,2.19
2023-02-27T22:13:16.789Z,2.21
2023-02-27T22:15:43.432Z,2.23
2023-02-27T22:18:10.063Z,2.21
2023-02-27T22:20:41.163Z,2.18
2023-02-27T22:23:08.472Z,2.26
2023-02-27T22:25:40.563Z,2.20
2023-02-27T22:28:07.535Z,2.09
2023-02-27T22:30:37.291Z,2.10
2023-02-27T22:33:04.044Z,2.08
2023-02-27T22:35:35.643Z,2.12
2023-02-27T22:38:10.983Z,2.12
2023-02-27T22:40:42.723Z,2.09
2023-02-27T22:43:11.279Z,2.07
2023-02-27T22:45:47.896Z,2.12
2023-02-27T22:48:14.595Z,2.09
2023-02-27T22:50:43.608Z,2.17
2023-02-27T22:53:10.314Z,2.22
2023-02-27T22:55:36.935Z,2.24
2023-02-27T22:58:03.560Z,2.24
2023-02-27T23:00:34.708Z,2.22
2023-02-27T23:03:01.289Z,2.24
2023-02-27T23:05:30.078Z,2.26
2023-02-27T23:07:59.157Z,2.28
2023-02-27T23:10:29.780Z,2.26
2023-02-27T23:12:56.454Z,2.26
2023-02-27T23:15:23.088Z,2.26
2023-02-27T23:17:58.462Z,2.24
2023-02-27T23:20:27.652Z,2.24
2023-02-27T23:22:56.150Z,2.27
2023-02-27T23:25:23.884Z,2.26
2023-02-27T23:27:53.405Z,2.17
2023-02-27T23:30:22.855Z,2.14
2023-02-27T23:32:51.020Z,2.18
2023-02-27T23:35:22.947Z,2.21
2023-02-27T23:37:55.765Z,2.23
2023-02-27T23:40:26.861Z,2.17
2023-02-27T23:43:13.114Z,2.16
2023-02-27T23:45:42.049Z,2.13
2023-02-27T23:48:09.325Z,2.14
2023-02-27T23:50:42.037Z,2.14
2023-02-27T23:53:10.374Z,2.21
2023-02-27T23:55:37.823Z,2.21
2023-02-27T23:58:09.793Z,2.15
